Time;durP1;ratioP1;P1;durP2;ratioP2;P2;SDS_P1;SDS_P2;PMS_P1;PMS_P2;Temp;Humidity;BMP_temperature;BMP_pressure;BME280_temperature;BME280_humidity;BME280_pressure;Samples;Min_cycle;Max_cycle;Signal;HPM_P1;HPM_P2
2024/01/26 00:02:01;;;;;;;45.63;22.63;;;9.50;99.90;;;;;;5070358;28;20426;-91
2024/01/26 00:04:27;;;;;;;44.63;23.65;;;9.80;99.90;;;;;;5071853;28;20398;-92
2024/01/26 00:06:53;;;;;;;45.35;24.48;;;9.60;99.90;;;;;;5070459;28;20916;-89
2024/01/26 00:09:19;;;;;;;42.10;23.13;;;9.80;99.90;;;;;;5071226;28;20413;-91
2024/01/26 00:11:45;;;;;;;41.67;23.42;;;9.60;99.90;;;;;;5071029;28;20402;-92
2024/01/26 00:14:10;;;;;;;38.60;20.63;;;9.60;99.90;;;;;;5070374;28;20440;-90
2024/01/26 00:16:37;;;;;;;41.00;23.17;;;9.90;99.90;;;;;;5071531;28;20402;-90
2024/01/26 00:19:06;;;;;;;40.95;23.52;;;9.60;99.90;;;;;;5070436;28;20811;-91
2024/01/26 00:21:32;;;;;;;40.78;23.42;;;9.70;99.90;;;;;;5071463;28;20418;-92
2024/01/26 00:23:59;;;;;;;44.70;24.73;;;9.70;99.90;;;;;;5070502;28;20433;-91
2024/01/26 00:26:24;;;;;;;41.33;23.98;;;9.90;99.90;;;;;;5071803;28;20410;-91
2024/01/26 00:28:51;;;;;;;42.15;24.23;;;9.70;99.90;;;;;;5070902;28;20421;-92
2024/01/26 00:31:17;;;;;;;41.50;24.13;;;9.80;99.90;;;;;;5070533;28;20406;-91
2024/01/26 00:33:44;;;;;;;38.13;21.73;;;9.80;99.90;;;;;;5070957;28;20521;-90
2024/01/26 00:36:11;;;;;;;38.17;22.88;;;9.70;99.90;;;;;;5070309;28;20934;-91
2024/01/26 00:38:37;;;;;;;35.28;21.23;;;9.70;99.90;;;;;;5071143;28;20394;-91
2024/01/26 00:41:03;;;;;;;35.73;22.30;;;9.60;99.90;;;;;;5069817;28;20401;-90
2024/01/26 00:43:28;;;;;;;33.65;20.70;;;9.60;99.90;;;;;;5070780;28;20744;-93
2024/01/26 00:45:54;;;;;;;34.95;20.77;;;9.80;99.90;;;;;;5070438;28;20789;-91
2024/01/26 00:48:20;;;;;;;33.75;20.52;;;9.60;99.90;;;;;;5070719;28;20410;-92
2024/01/26 00:50:49;;;;;;;33.28;19.55;;;9.80;99.90;;;;;;5070695;28;20394;-91
2024/01/26 00:53:16;;;;;;;33.53;20.55;;;9.80;99.90;;;;;;5069759;28;20409;-90
2024/01/26 00:55:41;;;;;;;31.45;18.52;;;9.70;99.90;;;;;;5070461;28;20413;-92
2024/01/26 00:58:07;;;;;;;31.95;18.67;;;9.60;99.90;;;;;;5069459;28;20885;-91
2024/01/26 01:00:33;;;;;;;33.00;18.83;;;9.60;99.90;;;;;;5070889;28;20402;-92
2024/01/26 01:02:58;;;;;;;31.25;17.90;;;9.50;99.90;;;;;;5069941;28;20517;-90
2024/01/26 01:05:24;;;;;;;30.05;17.33;;;9.50;99.90;;;;;;5070540;28;21048;-90
2024/01/26 01:07:50;;;;;;;33.80;18.88;;;9.50;99.90;;;;;;5070370;28;20442;-91
2024/01/26 01:10:16;;;;;;;31.65;18.00;;;9.30;99.90;;;;;;5069556;28;20840;-90
2024/01/26 01:12:42;;;;;;;29.10;17.50;;;9.80;99.90;;;;;;5070221;28;20505;-91
2024/01/26 01:15:12;;;;;;;29.40;18.08;;;9.70;99.90;;;;;;5069095;28;20440;-91
2024/01/26 01:17:39;;;;;;;29.87;18.43;;;9.60;99.90;;;;;;5070516;28;20406;-91
2024/01/26 01:20:08;;;;;;;25.38;16.50;;;9.60;99.90;;;;;;5069568;28;20414;-91
2024/01/26 01:22:34;;;;;;;25.42;17.30;;;9.60;99.90;;;;;;5070062;28;20499;-90
2024/01/26 01:25:00;;;;;;;23.77;17.13;;;9.60;99.90;;;;;;5069814;28;20406;-92
2024/01/26 01:27:25;;;;;;;22.98;15.98;;;9.90;99.90;;;;;;5069795;28;20471;-91
2024/01/26 01:29:51;;;;;;;23.83;15.93;;;9.80;99.90;;;;;;5070369;28;20406;-90
2024/01/26 01:32:17;;;;;;;22.87;15.77;;;9.60;99.90;;;;;;5069411;28;21065;-91
2024/01/26 01:34:43;;;;;;;22.73;15.82;;;9.70;99.90;;;;;;5070658;28;20492;-90
2024/01/26 01:37:09;;;;;;;22.25;14.50;;;9.80;99.90;;;;;;5069622;28;20398;-92
2024/01/26 01:39:34;;;;;;;21.50;14.90;;;9.70;99.90;;;;;;5070531;28;20442;-92
2024/01/26 01:42:00;;;;;;;20.85;15.43;;;10.00;99.90;;;;;;5069196;28;20461;-92
2024/01/26 01:44:26;;;;;;;21.93;16.10;;;10.00;99.90;;;;;;5069835;28;20409;-90
2024/01/26 01:46:52;;;;;;;23.83;17.13;;;9.90;99.90;;;;;;5070251;28;20409;-91
2024/01/26 01:49:18;;;;;;;20.45;16.70;;;9.70;99.90;;;;;;5069577;28;21036;-92
2024/01/26 01:51:47;;;;;;;21.90;16.10;;;9.70;99.90;;;;;;5070742;28;20394;-91
2024/01/26 01:54:14;;;;;;;22.30;17.15;;;10.10;99.90;;;;;;5068945;28;20402;-91
2024/01/26 01:56:42;;;;;;;22.35;17.17;;;9.90;99.90;;;;;;5070429;28;20555;-90
2024/01/26 01:59:09;;;;;;;22.43;17.33;;;9.90;99.90;;;;;;5069265;28;20431;-91
2024/01/26 02:01:35;;;;;;;24.20;18.73;;;9.80;99.90;;;;;;5069404;28;20414;-91
2024/01/26 02:04:02;;;;;;;22.85;17.42;;;9.70;99.90;;;;;;5070321;28;20409;-90
2024/01/26 02:06:28;;;;;;;24.67;19.00;;;9.60;99.90;;;;;;5072876;28;20448;-91
2024/01/26 02:08:54;;;;;;;22.95;18.60;;;10.10;99.90;;;;;;5073831;28;20489;-92
2024/01/26 02:11:20;;;;;;;24.45;19.80;;;10.00;99.90;;;;;;5072640;28;20492;-92
2024/01/26 02:13:45;;;;;;;23.27;19.77;;;10.00;99.90;;;;;;5073935;28;20791;-94
2024/01/26 02:16:11;;;;;;;26.20;21.00;;;10.10;99.90;;;;;;5072264;28;20406;-91
2024/01/26 02:18:36;;;;;;;24.55;20.40;;;10.20;99.90;;;;;;5073566;28;21203;-91
2024/01/26 02:21:03;;;;;;;26.75;21.70;;;10.10;99.90;;;;;;5073311;28;20487;-92
2024/01/26 02:23:28;;;;;;;26.23;22.52;;;9.80;99.90;;;;;;5072766;28;20426;-92
2024/01/26 02:25:54;;;;;;;26.60;21.33;;;9.90;99.90;;;;;;5072981;28;20406;-91
2024/01/26 02:28:20;;;;;;;25.27;22.10;;;10.00;99.90;;;;;;5072392;28;20398;-91
2024/01/26 02:30:46;;;;;;;26.67;21.95;;;9.90;99.90;;;;;;5073508;28;20414;-90
2024/01/26 02:33:11;;;;;;;25.63;22.80;;;10.00;99.90;;;;;;5072089;28;20401;-91
2024/01/26 02:35:37;;;;;;;27.20;23.40;;;9.90;99.90;;;;;;5073919;28;20400;-90
2024/01/26 02:38:03;;;;;;;27.40;23.27;;;9.90;99.90;;;;;;5072135;28;20409;-91
2024/01/26 02:40:29;;;;;;;27.52;22.90;;;10.10;99.90;;;;;;5072952;28;20410;-92
2024/01/26 02:42:55;;;;;;;28.15;23.35;;;10.00;99.90;;;;;;5072976;28;20429;-91
2024/01/26 02:45:22;;;;;;;27.02;24.02;;;9.90;99.90;;;;;;5072406;28;20410;-90
2024/01/26 02:47:48;;;;;;;29.77;24.83;;;10.20;99.90;;;;;;5073199;28;20920;-89
2024/01/26 02:50:14;;;;;;;29.00;24.08;;;10.00;99.90;;;;;;5071699;28;20521;-91
2024/01/26 02:52:39;;;;;;;29.40;24.85;;;10.00;99.90;;;;;;5073540;28;20490;-89
2024/01/26 02:55:05;;;;;;;29.47;23.17;;;10.10;99.90;;;;;;5072338;28;20881;-91
2024/01/26 02:57:31;;;;;;;27.90;22.80;;;10.00;99.90;;;;;;5073164;28;20476;-94
2024/01/26 02:59:56;;;;;;;28.20;22.35;;;10.00;99.90;;;;;;5072172;28;20909;-90
2024/01/26 03:02:22;;;;;;;28.90;22.23;;;10.30;99.90;;;;;;5072155;28;20426;-91
2024/01/26 03:04:48;;;;;;;26.98;21.60;;;10.20;99.90;;;;;;5072802;28;20405;-91
2024/01/26 03:07:14;;;;;;;27.97;20.80;;;10.10;99.90;;;;;;5071952;28;20394;-92
2024/01/26 03:09:39;;;;;;;31.40;21.57;;;10.10;99.90;;;;;;5072719;28;20777;-92
2024/01/26 03:12:05;;;;;;;28.63;21.23;;;9.90;99.90;;;;;;5071377;28;21048;-91
2024/01/26 03:14:31;;;;;;;29.48;21.48;;;10.10;99.90;;;;;;5073312;28;20413;-95
2024/01/26 03:16:57;;;;;;;28.27;21.50;;;10.10;99.90;;;;;;5071267;28;20406;-90
2024/01/26 03:19:22;;;;;;;30.60;22.43;;;10.10;99.90;;;;;;5072045;28;20475;-91
2024/01/26 03:21:48;;;;;;;30.63;22.17;;;10.20;99.90;;;;;;5071911;28;20410;-91
2024/01/26 03:24:14;;;;;;;32.47;22.53;;;10.40;99.90;;;;;;5071602;28;20413;-94
2024/01/26 03:26:40;;;;;;;30.37;20.43;;;10.10;99.90;;;;;;5072326;28;20409;-91
2024/01/26 03:29:06;;;;;;;33.23;22.10;;;10.40;99.90;;;;;;5070969;28;20409;-91
2024/01/26 03:31:32;;;;;;;29.65;20.42;;;10.20;99.90;;;;;;5072823;28;20452;-93
2024/01/26 03:33:58;;;;;;;32.45;21.00;;;10.60;99.90;;;;;;5070764;28;20809;-90
2024/01/26 03:36:24;;;;;;;33.37;21.67;;;10.30;99.90;;;;;;5072116;28;20394;-90
2024/01/26 03:38:49;;;;;;;31.25;21.75;;;10.20;99.90;;;;;;5071366;28;20406;-91
2024/01/26 03:41:15;;;;;;;33.03;21.55;;;10.30;99.90;;;;;;5071220;28;20398;-91
2024/01/26 03:43:41;;;;;;;33.70;21.93;;;10.30;99.90;;;;;;5073918;28;20824;-93
2024/01/26 03:46:07;;;;;;;32.67;21.87;;;10.50;99.90;;;;;;5091215;28;20455;-91
2024/01/26 03:48:33;;;;;;;35.05;22.55;;;10.80;99.90;;;;;;5091990;28;20428;-90
2024/01/26 03:50:59;;;;;;;31.38;22.25;;;10.60;99.90;;;;;;5086312;28;20516;-92
2024/01/26 03:53:25;;;;;;;34.97;23.23;;;10.50;99.90;;;;;;5071989;28;20395;-92
2024/01/26 03:55:53;;;;;;;33.83;22.58;;;10.50;99.90;;;;;;5071115;28;20421;-91
2024/01/26 03:58:19;;;;;;;33.80;23.10;;;10.50;99.90;;;;;;5071160;28;20422;-92
2024/01/26 04:00:45;;;;;;;38.58;24.55;;;10.40;99.90;;;;;;5072061;28;20550;-91
2024/01/26 04:03:11;;;;;;;37.35;24.65;;;10.20;99.90;;;;;;5070926;28;20458;-91
2024/01/26 04:05:36;;;;;;;33.53;23.13;;;10.60;99.90;;;;;;5071456;28;20430;-92
2024/01/26 04:08:03;;;;;;;33.92;23.88;;;10.40;99.90;;;;;;5070443;28;20406;-91
2024/01/26 04:10:30;;;;;;;36.33;25.33;;;10.40;99.90;;;;;;5072007;28;20406;-93
2024/01/26 04:12:56;;;;;;;36.90;25.03;;;10.40;99.90;;;;;;5070388;28;20485;-91
2024/01/26 04:15:22;;;;;;;36.90;24.92;;;10.70;99.90;;;;;;5071969;28;20416;-92
2024/01/26 04:17:48;;;;;;;36.72;24.05;;;10.50;99.90;;;;;;5070679;28;20893;-91
2024/01/26 04:20:13;;;;;;;35.27;25.07;;;10.70;99.90;;;;;;5070756;28;20417;-91
2024/01/26 04:22:39;;;;;;;37.13;23.13;;;10.50;99.90;;;;;;5071128;28;20430;-93
2024/01/26 04:25:05;;;;;;;33.95;25.38;;;10.50;99.90;;;;;;5070217;28;20989;-93
2024/01/26 04:27:31;;;;;;;32.95;24.35;;;10.50;99.90;;;;;;5070801;28;20930;-89
2024/01/26 04:29:58;;;;;;;34.67;24.40;;;10.70;99.90;;;;;;5069592;28;20416;-89
2024/01/26 04:32:24;;;;;;;31.08;24.20;;;10.70;99.90;;;;;;5071254;28;20410;-91
2024/01/26 04:34:50;;;;;;;35.43;24.43;;;10.50;99.90;;;;;;5070338;28;20417;-90
2024/01/26 04:37:15;;;;;;;30.27;23.33;;;10.60;99.90;;;;;;5070810;28;20785;-90
2024/01/26 04:39:42;;;;;;;32.25;24.52;;;10.80;99.90;;;;;;5070959;28;20408;-89
2024/01/26 04:42:08;;;;;;;29.20;21.48;;;10.70;99.90;;;;;;5070365;28;20426;-91
2024/01/26 04:44:35;;;;;;;36.77;23.67;;;10.60;99.90;;;;;;5070916;28;20761;-92
2024/01/26 04:47:01;;;;;;;30.15;22.77;;;10.80;99.90;;;;;;5069816;28;20395;-91
2024/01/26 04:49:27;;;;;;;32.57;23.37;;;10.70;99.90;;;;;;5071331;28;20408;-92
2024/01/26 04:51:52;;;;;;;31.70;22.83;;;10.90;99.90;;;;;;5069850;28;20987;-94
2024/01/26 04:54:18;;;;;;;30.25;23.63;;;10.90;99.90;;;;;;5070350;28;20429;-92
2024/01/26 04:56:44;;;;;;;27.55;22.27;;;10.80;99.90;;;;;;5070392;28;20458;-92
2024/01/26 04:59:09;;;;;;;28.17;22.03;;;10.70;99.90;;;;;;5070032;28;20452;-94
2024/01/26 05:01:35;;;;;;;29.75;22.77;;;11.00;99.90;;;;;;5070852;28;20406;-93
2024/01/26 05:04:03;;;;;;;29.37;23.00;;;10.90;99.90;;;;;;5069683;28;20869;-90
2024/01/26 05:06:29;;;;;;;31.30;23.77;;;10.80;99.90;;;;;;5070467;28;20548;-93
2024/01/26 05:08:55;;;;;;;33.97;25.30;;;10.90;99.90;;;;;;5069221;28;20509;-91
2024/01/26 05:11:20;;;;;;;36.85;25.65;;;11.10;99.90;;;;;;5070950;28;20405;-92
2024/01/26 05:13:46;;;;;;;35.65;25.20;;;10.80;99.90;;;;;;5069717;28;20485;-95
2024/01/26 05:16:12;;;;;;;38.50;27.03;;;11.00;99.90;;;;;;5070430;28;20405;-93
2024/01/26 05:18:38;;;;;;;35.17;25.35;;;11.00;99.90;;;;;;5070694;28;20394;-93
2024/01/26 05:21:04;;;;;;;36.50;24.75;;;10.70;99.90;;;;;;5069713;28;20424;-93
2024/01/26 05:23:30;;;;;;;34.47;24.87;;;10.70;99.90;;;;;;5070466;28;20434;-90
2024/01/26 05:25:56;;;;;;;34.70;25.03;;;10.80;99.90;;;;;;5069260;28;20436;-90
2024/01/26 05:28:22;;;;;;;33.78;25.20;;;10.90;99.90;;;;;;5070714;28;20884;-91
2024/01/26 05:30:48;;;;;;;37.45;25.80;;;10.80;99.90;;;;;;5069025;28;20713;-91
2024/01/26 05:33:14;;;;;;;34.33;24.58;;;11.10;99.90;;;;;;5069174;28;20457;-93
2024/01/26 05:35:40;;;;;;;34.58;24.98;;;10.80;99.90;;;;;;5070190;28;20404;-91
2024/01/26 05:38:05;;;;;;;30.25;23.20;;;10.80;99.90;;;;;;5069916;28;20496;-90
2024/01/26 05:40:31;;;;;;;31.03;22.30;;;10.90;99.90;;;;;;5074515;28;20413;-91
2024/01/26 05:43:00;;;;;;;26.03;20.10;;;10.80;99.90;;;;;;5073792;28;20803;-92
2024/01/26 05:45:26;;;;;;;27.25;21.15;;;11.10;99.90;;;;;;5074861;28;20563;-91
2024/01/26 05:47:52;;;;;;;28.25;20.95;;;10.90;99.90;;;;;;5072880;28;20794;-90
2024/01/26 05:50:19;;;;;;;31.48;21.77;;;11.00;99.90;;;;;;5074739;28;20420;-92
2024/01/26 05:52:45;;;;;;;29.58;21.40;;;10.90;99.90;;;;;;5072353;28;20401;-88
2024/01/26 05:55:11;;;;;;;29.02;21.77;;;10.90;99.90;;;;;;5073961;28;20490;-92
2024/01/26 05:57:37;;;;;;;30.30;22.67;;;10.90;99.90;;;;;;5073681;28;20401;-89
2024/01/26 06:00:03;;;;;;;30.65;21.58;;;10.90;99.90;;;;;;5072864;28;20434;-89
2024/01/26 06:02:30;;;;;;;27.92;20.25;;;10.90;99.90;;;;;;5073926;28;20421;-91
2024/01/26 06:04:56;;;;;;;27.42;21.58;;;10.90;99.90;;;;;;5072826;28;20401;-90
2024/01/26 06:07:22;;;;;;;26.67;20.95;;;11.00;99.90;;;;;;5072967;28;20417;-89
2024/01/26 06:09:47;;;;;;;28.03;21.33;;;10.90;99.90;;;;;;5071846;28;20913;-90
2024/01/26 06:12:13;;;;;;;29.83;22.23;;;11.20;99.90;;;;;;5073768;28;20493;-90
2024/01/26 06:14:42;;;;;;;30.17;21.13;;;11.10;99.90;;;;;;5074236;28;20402;-93
2024/01/26 06:17:07;;;;;;;30.42;21.90;;;10.90;99.90;;;;;;5072860;28;20449;-90
2024/01/26 06:19:33;;;;;;;36.67;24.42;;;11.10;99.90;;;;;;5072729;28;20426;-90
2024/01/26 06:21:59;;;;;;;30.13;21.95;;;11.00;99.90;;;;;;5073813;28;20402;-89
2024/01/26 06:24:25;;;;;;;34.35;22.10;;;10.90;99.90;;;;;;5073225;28;20901;-94
2024/01/26 06:26:51;;;;;;;37.92;23.45;;;10.90;99.90;;;;;;5073176;28;20390;-90
2024/01/26 06:29:16;;;;;;;31.67;21.57;;;10.90;99.90;;;;;;5074685;28;20429;-95
2024/01/26 06:31:45;;;;;;;38.07;23.83;;;10.90;99.90;;;;;;5072768;28;20448;-94
2024/01/26 06:34:11;;;;;;;36.47;22.73;;;10.80;99.90;;;;;;5077181;28;20934;-91
2024/01/26 06:36:36;;;;;;;31.53;20.87;;;10.80;99.90;;;;;;5074601;28;20768;-92
2024/01/26 06:39:03;;;;;;;33.67;20.73;;;10.80;99.90;;;;;;5073860;28;20437;-94
2024/01/26 06:41:28;;;;;;;32.63;20.50;;;10.80;99.90;;;;;;5076270;28;20428;-95
2024/01/26 06:43:54;;;;;;;26.50;17.03;;;11.00;99.90;;;;;;5075779;28;20429;-95
2024/01/26 06:46:22;;;;;;;31.98;20.08;;;10.90;99.90;;;;;;5076724;28;20410;-96
2024/01/26 06:48:48;;;;;;;27.27;17.17;;;10.80;99.90;;;;;;5077937;28;20535;-93
2024/01/26 06:51:15;;;;;;;28.20;18.08;;;10.90;99.90;;;;;;5077674;28;21084;-89
2024/01/26 06:53:41;;;;;;;26.40;16.75;;;10.90;99.90;;;;;;5076854;28;20409;-95
2024/01/26 06:56:07;;;;;;;28.77;18.02;;;10.90;99.90;;;;;;5059043;28;20796;-94
2024/01/26 06:58:36;;;;;;;29.30;17.42;;;10.80;99.90;;;;;;5075857;28;20398;-94
2024/01/26 07:01:02;;;;;;;25.00;15.07;;;11.00;99.90;;;;;;5081454;28;20459;-95
2024/01/26 07:03:31;;;;;;;36.47;19.80;;;10.80;99.90;;;;;;5078315;28;20422;-93
2024/01/26 07:05:57;;;;;;;29.13;17.90;;;10.90;99.90;;;;;;5078619;28;20426;-91
2024/01/26 07:08:23;;;;;;;26.17;16.03;;;10.80;99.90;;;;;;5076004;28;20405;-94
2024/01/26 07:10:51;;;;;;;28.37;17.40;;;10.90;99.90;;;;;;5080791;28;20421;-94
2024/01/26 07:13:17;;;;;;;27.58;17.05;;;10.80;99.90;;;;;;5078912;28;20454;-92
2024/01/26 07:15:43;;;;;;;27.93;17.10;;;10.80;99.90;;;;;;5079856;28;20402;-94
2024/01/26 07:18:08;;;;;;;28.35;17.15;;;11.10;99.90;;;;;;5072705;28;20413;-93
2024/01/26 07:20:34;;;;;;;27.98;17.40;;;10.90;99.90;;;;;;5074842;28;20457;-92
2024/01/26 07:23:06;;;;;;;26.50;16.57;;;11.10;99.90;;;;;;5075786;28;20438;-93
2024/01/26 07:25:32;;;;;;;30.08;17.98;;;10.80;99.90;;;;;;5078317;28;20494;-94
2024/01/26 07:27:58;;;;;;;34.07;18.47;;;10.80;99.90;;;;;;5076055;28;20817;-94
2024/01/26 07:30:24;;;;;;;26.87;16.53;;;10.90;99.90;;;;;;5076084;28;20422;-94
2024/01/26 07:32:53;;;;;;;27.45;16.25;;;10.90;99.90;;;;;;5089932;28;20399;-89
2024/01/26 07:35:18;;;;;;;27.35;16.65;;;10.80;99.90;;;;;;5075702;28;21146;-92
2024/01/26 07:37:44;;;;;;;26.77;16.70;;;10.90;99.90;;;;;;5076413;28;20382;-95
2024/01/26 07:40:10;;;;;;;28.50;16.93;;;11.00;99.90;;;;;;5073134;28;20993;-93
2024/01/26 07:42:36;;;;;;;32.08;18.48;;;10.70;99.90;;;;;;5074719;28;20510;-92
2024/01/26 07:45:01;;;;;;;34.05;19.05;;;10.80;99.90;;;;;;5072407;28;20455;-91
2024/01/26 07:47:27;;;;;;;33.27;18.27;;;10.80;99.90;;;;;;5075257;28;20464;-95
2024/01/26 07:49:53;;;;;;;31.37;19.53;;;10.80;99.90;;;;;;5072242;28;20974;-91
2024/01/26 07:52:19;;;;;;;39.05;20.63;;;10.70;99.90;;;;;;5074295;28;20398;-93
2024/01/26 07:54:44;;;;;;;35.00;19.63;;;10.60;99.90;;;;;;5072287;28;20433;-93
2024/01/26 07:57:10;;;;;;;33.17;19.03;;;10.60;99.90;;;;;;5072694;28;20994;-91
2024/01/26 07:59:38;;;;;;;37.45;19.88;;;10.60;99.90;;;;;;5072090;28;21098;-93
2024/01/26 08:02:04;;;;;;;38.63;19.80;;;10.50;99.90;;;;;;5071435;28;20398;-93
2024/01/26 08:04:45;;;;;;;27.77;16.83;;;10.70;99.90;;;;;;5072483;28;20417;-93
2024/01/26 08:07:30;;;;;;;33.58;19.63;;;10.80;99.90;;;;;;5067742;23;20440;-91
2024/01/26 08:09:55;;;;;;;33.83;19.35;;;10.50;99.90;;;;;;5031703;28;20409;-94
2024/01/26 08:12:21;;;;;;;38.50;21.10;;;10.60;99.90;;;;;;5031962;28;20508;-93
2024/01/26 08:14:47;;;;;;;30.52;19.65;;;10.60;99.90;;;;;;5030851;28;20417;-90
2024/01/26 08:17:16;;;;;;;34.65;19.17;;;10.60;99.90;;;;;;5047426;28;20421;-94
2024/01/26 08:19:41;;;;;;;30.20;18.70;;;10.60;99.90;;;;;;5048815;28;20420;-92
2024/01/26 08:22:07;;;;;;;38.17;20.47;;;10.30;99.90;;;;;;5029817;28;20433;-93
2024/01/26 08:24:32;;;;;;;31.40;19.02;;;10.40;99.90;;;;;;5032237;28;21077;-91
2024/01/26 08:26:58;;;;;;;28.67;18.90;;;10.30;99.90;;;;;;5046314;28;20451;-94
2024/01/26 08:29:26;;;;;;;34.22;18.65;;;10.50;99.90;;;;;;5032389;28;20405;-91
2024/01/26 08:31:52;;;;;;;30.77;17.67;;;10.30;99.90;;;;;;5030301;28;20505;-88
2024/01/26 08:34:20;;;;;;;30.88;16.60;;;10.40;99.90;;;;;;5032009;28;20935;-93
2024/01/26 08:36:46;;;;;;;26.20;14.23;;;10.50;99.90;;;;;;5031520;28;20412;-92
2024/01/26 08:39:12;;;;;;;31.17;11.90;;;10.50;99.90;;;;;;5031805;28;20417;-93
2024/01/26 08:41:43;;;;;;;20.75;10.15;;;10.50;99.90;;;;;;5032497;28;20826;-91
2024/01/26 08:44:13;;;;;;;29.02;11.38;;;10.70;99.90;;;;;;5030354;28;20464;-93
2024/01/26 08:46:41;;;;;;;27.23;9.15;;;10.60;99.90;;;;;;5032443;28;20504;-93
2024/01/26 08:49:09;;;;;;;24.13;8.40;;;10.70;99.90;;;;;;5030056;28;20841;-90
2024/01/26 08:51:35;;;;;;;26.10;8.77;;;10.50;99.90;;;;;;5036156;28;20497;-91
2024/01/26 08:54:01;;;;;;;21.20;7.97;;;10.50;99.90;;;;;;5030856;28;20485;-89
2024/01/26 08:56:27;;;;;;;29.23;9.85;;;11.00;99.90;;;;;;5031453;28;20413;-90
2024/01/26 08:58:54;;;;;;;15.43;3.40;;;10.40;99.90;;;;;;5030581;28;20406;-93
2024/01/26 09:01:20;;;;;;;12.77;1.70;;;10.40;99.90;;;;;;5030491;28;20475;-90
2024/01/26 09:03:45;;;;;;;11.33;1.20;;;10.20;99.90;;;;;;5047714;28;20444;-92
2024/01/26 09:06:11;;;;;;;13.00;1.53;;;9.90;99.90;;;;;;5028865;28;20437;-91
2024/01/26 09:08:37;;;;;;;9.02;0.80;;;9.70;99.90;;;;;;5030507;28;20413;-89
2024/01/26 09:11:03;;;;;;;11.38;1.10;;;9.60;99.90;;;;;;5028313;28;20916;-90
2024/01/26 09:13:28;;;;;;;12.87;1.27;;;9.40;99.90;;;;;;5030352;28;20425;-92
2024/01/26 09:15:54;;;;;;;10.32;1.10;;;9.40;99.90;;;;;;5029966;28;20421;-90
2024/01/26 09:18:20;;;;;;;9.23;0.97;;;9.60;99.90;;;;;;5030263;28;20819;-93
2024/01/26 09:20:49;;;;;;;9.57;1.20;;;9.20;99.90;;;;;;5031582;28;20504;-92
2024/01/26 09:23:18;;;;;;;10.70;1.02;;;9.50;99.90;;;;;;5029783;28;20524;-89
2024/01/26 09:25:46;;;;;;;11.32;0.82;;;9.10;99.90;;;;;;5047558;28;21630;-94
2024/01/26 09:28:12;;;;;;;11.88;1.40;;;9.20;99.90;;;;;;5046984;28;20401;-94
2024/01/26 09:30:38;;;;;;;13.70;1.20;;;9.00;99.90;;;;;;5032395;28;20407;-90
2024/01/26 09:33:03;;;;;;;13.30;1.48;;;9.20;99.90;;;;;;5029699;28;20421;-92
2024/01/26 09:35:29;;;;;;;15.60;1.83;;;9.20;99.90;;;;;;5031350;28;20414;-93
2024/01/26 09:37:55;;;;;;;13.77;1.50;;;9.10;99.90;;;;;;5029250;28;20843;-90
2024/01/26 09:40:23;;;;;;;17.85;1.75;;;8.90;99.90;;;;;;5030652;28;20409;-88
2024/01/26 09:42:49;;;;;;;15.68;2.20;;;8.80;99.90;;;;;;5030077;28;20429;-90
2024/01/26 09:45:15;;;;;;;19.27;2.35;;;8.80;99.90;;;;;;5029934;28;20820;-92
2024/01/26 09:47:48;;;;;;;16.30;2.58;;;8.80;99.90;;;;;;5029399;28;20812;-91
2024/01/26 09:50:15;;;;;;;15.87;1.80;;;8.70;99.90;;;;;;5018577;28;20826;-92
2024/01/26 09:52:42;;;;;;;18.23;2.50;;;8.70;99.90;;;;;;5021495;28;20445;-89
2024/01/26 09:55:09;;;;;;;17.35;1.77;;;8.60;99.90;;;;;;5018188;28;20399;-91
2024/01/26 09:57:35;;;;;;;18.30;1.70;;;8.90;99.90;;;;;;5026713;28;20402;-93
2024/01/26 10:00:04;;;;;;;14.48;1.35;;;8.90;99.90;;;;;;5022896;28;20439;-93
2024/01/26 10:02:30;;;;;;;15.25;1.90;;;8.60;99.90;;;;;;5027605;28;20436;-90
2024/01/26 10:04:56;;;;;;;18.83;1.85;;;8.80;99.90;;;;;;5020783;28;20417;-91
2024/01/26 10:07:22;;;;;;;17.25;1.98;;;8.70;99.90;;;;;;5018459;28;20427;-93
2024/01/26 10:09:47;;;;;;;17.88;2.33;;;8.70;99.90;;;;;;5026778;28;20417;-89
2024/01/26 10:12:13;;;;;;;18.58;2.13;;;8.60;99.90;;;;;;5021283;28;20423;-91
2024/01/26 10:14:39;;;;;;;15.10;1.93;;;8.70;99.90;;;;;;5042108;28;20413;-89
2024/01/26 10:17:05;;;;;;;21.50;3.00;;;8.80;99.90;;;;;;5035252;28;20501;-92
2024/01/26 10:19:36;;;;;;;18.50;1.92;;;8.70;99.90;;;;;;5023736;28;20434;-93
2024/01/26 10:22:04;;;;;;;16.52;2.00;;;8.70;99.90;;;;;;5009410;28;20922;-92
2024/01/26 10:24:30;;;;;;;17.20;2.13;;;8.90;99.90;;;;;;5045051;28;20413;-94
2024/01/26 10:26:56;;;;;;;16.87;2.10;;;9.20;99.90;;;;;;5043576;28;20424;-92
2024/01/26 10:29:23;;;;;;;17.92;2.00;;;8.90;99.90;;;;;;5049219;28;20417;-92
2024/01/26 10:31:50;;;;;;;15.63;1.88;;;9.00;99.90;;;;;;5032536;28;20460;-92
2024/01/26 10:34:17;;;;;;;16.63;2.30;;;8.90;99.90;;;;;;5040556;28;20414;-93
2024/01/26 10:36:47;;;;;;;20.65;2.97;;;9.00;99.90;;;;;;5023083;28;20488;-91
2024/01/26 10:39:23;;;;;;;15.93;2.08;;;9.20;99.90;;;;;;5022393;28;20445;-90
2024/01/26 10:41:52;;;;;;;15.98;2.22;;;8.90;99.90;;;;;;5033955;28;20421;-92
2024/01/26 10:44:24;;;;;;;19.83;2.57;;;8.80;99.90;;;;;;5033442;28;20902;-93
2024/01/26 10:46:52;;;;;;;16.35;2.50;;;9.10;99.90;;;;;;5034489;28;20444;-92
2024/01/26 10:49:19;;;;;;;16.00;2.38;;;9.10;99.90;;;;;;5034558;28;20413;-92
2024/01/26 10:51:48;;;;;;;14.95;1.90;;;9.40;99.90;;;;;;5032905;28;20774;-93
2024/01/26 10:54:14;;;;;;;17.42;2.28;;;9.20;99.90;;;;;;5035478;28;20402;-92
2024/01/26 10:56:40;;;;;;;18.00;2.42;;;9.20;99.90;;;;;;5034634;28;20905;-94
2024/01/26 10:59:09;;;;;;;17.30;2.53;;;9.10;99.90;;;;;;5052316;28;20412;-93
2024/01/26 11:01:36;;;;;;;15.68;1.92;;;9.40;99.90;;;;;;5032967;28;20508;-94
2024/01/26 11:04:03;;;;;;;17.35;2.63;;;9.60;99.90;;;;;;5035581;28;20464;-93
2024/01/26 11:06:34;;;;;;;14.95;2.72;;;9.40;99.90;;;;;;5043402;28;20419;-91
2024/01/26 11:09:03;;;;;;;16.67;2.40;;;9.70;99.90;;;;;;5015743;28;20782;-94
2024/01/26 11:11:32;;;;;;;16.13;2.40;;;9.60;99.90;;;;;;5024062;28;20409;-92
2024/01/26 11:14:03;;;;;;;15.57;2.17;;;9.80;99.90;;;;;;5032706;28;20955;-92
2024/01/26 11:16:35;;;;;;;15.77;2.60;;;9.80;99.90;;;;;;5034007;28;20421;-94
2024/01/26 11:19:02;;;;;;;18.17;2.58;;;9.90;99.90;;;;;;5032726;28;20793;-90
2024/01/26 11:21:42;;;;;;;17.02;1.95;;;9.70;99.90;;;;;;5034354;28;20409;-95
2024/01/26 11:24:26;;;;;;;16.17;2.28;;;9.80;99.90;;;;;;5048395;28;20449;-91
2024/01/26 11:26:59;;;;;;;11.07;1.73;;;9.50;99.90;;;;;;5034170;28;20479;-94
2024/01/26 11:29:36;;;;;;;15.80;2.47;;;9.50;99.90;;;;;;5035180;28;20417;-92
2024/01/26 11:32:18;;;;;;;14.98;2.30;;;9.70;99.90;;;;;;5015252;28;20770;-91
2024/01/26 11:34:45;;;;;;;16.05;1.92;;;9.50;99.90;;;;;;5016071;28;20411;-92
2024/01/26 11:37:14;;;;;;;13.25;1.80;;;9.40;99.90;;;;;;5014224;28;20525;-92
2024/01/26 11:39:41;;;;;;;13.30;1.67;;;9.40;99.90;;;;;;5015617;28;20417;-92
2024/01/26 11:42:09;;;;;;;15.80;2.58;;;9.10;99.90;;;;;;5012928;28;20438;-93
2024/01/26 11:44:41;;;;;;;14.82;1.80;;;9.20;99.90;;;;;;5016122;28;20435;-93
2024/01/26 11:47:09;;;;;;;15.50;2.05;;;9.00;99.90;;;;;;5033306;28;21241;-92
2024/01/26 11:49:39;;;;;;;15.15;1.90;;;9.00;99.90;;;;;;5035610;28;20428;-89
2024/01/26 11:52:05;;;;;;;16.15;2.03;;;9.10;99.90;;;;;;5036657;28;20991;-92
2024/01/26 11:54:32;;;;;;;17.88;2.38;;;8.90;99.90;;;;;;5033959;28;20500;-94
2024/01/26 11:57:04;;;;;;;18.48;2.50;;;8.90;99.90;;;;;;5034239;28;20811;-93
2024/01/26 11:59:29;;;;;;;18.58;3.08;;;8.70;99.90;;;;;;5032529;28;20437;-90
2024/01/26 12:01:55;;;;;;;21.07;3.50;;;9.10;99.90;;;;;;5023124;28;20411;-95
2024/01/26 12:04:23;;;;;;;20.38;3.28;;;8.80;99.90;;;;;;5012757;28;20415;-95
2024/01/26 12:06:50;;;;;;;21.02;3.20;;;8.80;99.90;;;;;;5014133;28;20442;-92
2024/01/26 12:09:16;;;;;;;20.50;2.95;;;8.50;99.90;;;;;;5012092;28;20437;-92
2024/01/26 12:11:42;;;;;;;22.10;3.30;;;8.80;99.90;;;;;;5013450;28;20490;-93
2024/01/26 12:14:08;;;;;;;19.50;2.80;;;9.10;99.90;;;;;;5029912;28;21042;-93
2024/01/26 12:16:33;;;;;;;20.67;2.95;;;9.10;99.90;;;;;;5032457;28;20445;-90
2024/01/26 12:19:01;;;;;;;16.67;2.43;;;8.70;99.90;;;;;;5032783;28;20409;-92
2024/01/26 12:21:29;;;;;;;17.98;3.10;;;8.90;99.90;;;;;;5031413;28;20793;-91
2024/01/26 12:23:55;;;;;;;16.80;2.53;;;8.80;99.90;;;;;;5033209;28;20449;-91
2024/01/26 12:26:20;;;;;;;18.65;2.72;;;8.60;99.90;;;;;;5030421;28;20856;-93
2024/01/26 12:28:46;;;;;;;18.60;2.83;;;8.70;99.90;;;;;;5048727;28;20474;-91
2024/01/26 12:31:15;;;;;;;17.63;2.67;;;8.60;99.90;;;;;;5030055;28;20429;-93
2024/01/26 12:33:40;;;;;;;17.95;3.30;;;8.50;99.90;;;;;;5032590;28;20522;-90